sensor_id;sensor_type;location;lat;lon;timestamp;P1;durP1;ratioP1;P2;durP2;ratioP2
46158;SDS011;31888;44.512;26.104;2022-07-18T00:01:00;3.08;;;1.08;;
46158;SDS011;31888;44.512;26.104;2022-07-18T00:03:04;3.33;;;1.58;;
46158;SDS011;31888;44.512;26.104;2022-07-18T00:05:10;5.50;;;1.20;;
46158;SDS011;31888;44.512;26.104;2022-07-18T00:07:16;6.72;;;2.45;;
46158;SDS011;31888;44.512;26.104;2022-07-18T00:09:20;4.13;;;1.25;;
46158;SDS011;31888;44.512;26.104;2022-07-18T00:11:26;4.68;;;1.25;;
46158;SDS011;31888;44.512;26.104;2022-07-18T00:13:31;4.50;;;1.20;;
46158;SDS011;31888;44.512;26.104;2022-07-18T00:15:35;2.17;;;1.42;;
46158;SDS011;31888;44.512;26.104;2022-07-18T00:17:40;2.92;;;1.30;;
46158;SDS011;31888;44.512;26.104;2022-07-18T00:19:44;4.38;;;1.20;;
46158;SDS011;31888;44.512;26.104;2022-07-18T00:21:50;4.47;;;1.58;;
46158;SDS011;31888;44.512;26.104;2022-07-18T00:23:54;2.47;;;1.27;;
46158;SDS011;31888;44.512;26.104;2022-07-18T00:25:59;3.65;;;1.80;;
46158;SDS011;31888;44.512;26.104;2022-07-18T00:28:03;2.85;;;1.10;;
46158;SDS011;31888;44.512;26.104;2022-07-18T00:30:08;1.77;;;1.17;;
46158;SDS011;31888;44.512;26.104;2022-07-18T00:32:14;2.88;;;1.40;;
46158;SDS011;31888;44.512;26.104;2022-07-18T00:34:19;1.73;;;1.23;;
46158;SDS011;31888;44.512;26.104;2022-07-18T00:36:23;2.65;;;1.20;;
46158;SDS011;31888;44.512;26.104;2022-07-18T00:38:28;4.53;;;1.35;;
46158;SDS011;31888;44.512;26.104;2022-07-18T00:40:33;6.72;;;1.13;;
46158;SDS011;31888;44.512;26.104;2022-07-18T00:42:37;3.33;;;1.08;;
46158;SDS011;31888;44.512;26.104;2022-07-18T00:44:42;5.10;;;1.17;;
46158;SDS011;31888;44.512;26.104;2022-07-18T00:46:47;2.60;;;0.95;;
46158;SDS011;31888;44.512;26.104;2022-07-18T00:48:52;2.55;;;1.23;;
46158;SDS011;31888;44.512;26.104;2022-07-18T00:50:58;1.75;;;1.17;;
46158;SDS011;31888;44.512;26.104;2022-07-18T00:53:02;2.50;;;0.93;;
46158;SDS011;31888;44.512;26.104;2022-07-18T00:55:09;2.42;;;1.20;;
46158;SDS011;31888;44.512;26.104;2022-07-18T00:57:15;3.88;;;1.48;;
46158;SDS011;31888;44.512;26.104;2022-07-18T00:59:20;3.72;;;1.20;;
46158;SDS011;31888;44.512;26.104;2022-07-18T01:01:24;1.98;;;1.17;;
46158;SDS011;31888;44.512;26.104;2022-07-18T01:03:46;4.07;;;1.25;;
46158;SDS011;31888;44.512;26.104;2022-07-18T01:05:50;1.73;;;1.20;;
46158;SDS011;31888;44.512;26.104;2022-07-18T01:07:55;5.88;;;1.20;;
46158;SDS011;31888;44.512;26.104;2022-07-18T01:09:59;3.33;;;1.35;;
46158;SDS011;31888;44.512;26.104;2022-07-18T01:12:06;3.15;;;1.45;;
46158;SDS011;31888;44.512;26.104;2022-07-18T01:14:12;2.75;;;1.48;;
46158;SDS011;31888;44.512;26.104;2022-07-18T01:16:17;2.40;;;1.40;;
46158;SDS011;31888;44.512;26.104;2022-07-18T01:18:22;6.07;;;1.30;;
46158;SDS011;31888;44.512;26.104;2022-07-18T01:20:28;3.60;;;1.35;;
46158;SDS011;31888;44.512;26.104;2022-07-18T01:22:33;3.88;;;1.33;;
46158;SDS011;31888;44.512;26.104;2022-07-18T01:24:38;3.13;;;1.10;;
46158;SDS011;31888;44.512;26.104;2022-07-18T01:26:43;4.15;;;1.88;;
46158;SDS011;31888;44.512;26.104;2022-07-18T01:28:48;3.28;;;1.42;;
46158;SDS011;31888;44.512;26.104;2022-07-18T01:30:52;4.47;;;1.33;;
46158;SDS011;31888;44.512;26.104;2022-07-18T01:32:57;3.33;;;1.40;;
46158;SDS011;31888;44.512;26.104;2022-07-18T01:35:03;2.78;;;1.17;;
46158;SDS011;31888;44.512;26.104;2022-07-18T01:37:10;4.57;;;1.42;;
46158;SDS011;31888;44.512;26.104;2022-07-18T01:39:14;1.88;;;1.13;;
46158;SDS011;31888;44.512;26.104;2022-07-18T01:41:19;2.33;;;1.50;;
46158;SDS011;31888;44.512;26.104;2022-07-18T01:43:23;2.38;;;1.40;;
46158;SDS011;31888;44.512;26.104;2022-07-18T01:45:28;3.55;;;1.50;;
46158;SDS011;31888;44.512;26.104;2022-07-18T01:47:32;3.58;;;1.20;;
46158;SDS011;31888;44.512;26.104;2022-07-18T01:49:37;1.75;;;0.98;;
46158;SDS011;31888;44.512;26.104;2022-07-18T01:51:44;3.72;;;0.93;;
46158;SDS011;31888;44.512;26.104;2022-07-18T01:53:54;2.45;;;1.33;;
46158;SDS011;31888;44.512;26.104;2022-07-18T01:56:03;5.57;;;1.40;;
46158;SDS011;31888;44.512;26.104;2022-07-18T01:58:08;3.78;;;1.50;;
46158;SDS011;31888;44.512;26.104;2022-07-18T02:00:12;4.70;;;1.52;;
46158;SDS011;31888;44.512;26.104;2022-07-18T02:02:17;2.72;;;1.15;;
46158;SDS011;31888;44.512;26.104;2022-07-18T02:04:31;3.78;;;1.17;;
46158;SDS011;31888;44.512;26.104;2022-07-18T02:06:53;6.03;;;1.50;;
46158;SDS011;31888;44.512;26.104;2022-07-18T02:08:58;1.63;;;1.02;;
46158;SDS011;31888;44.512;26.104;2022-07-18T02:11:03;2.22;;;1.40;;
46158;SDS011;31888;44.512;26.104;2022-07-18T02:13:07;4.93;;;1.23;;
46158;SDS011;31888;44.512;26.104;2022-07-18T02:15:13;2.88;;;1.17;;
46158;SDS011;31888;44.512;26.104;2022-07-18T02:17:18;3.33;;;1.27;;
46158;SDS011;31888;44.512;26.104;2022-07-18T02:19:23;4.10;;;1.23;;
46158;SDS011;31888;44.512;26.104;2022-07-18T02:21:27;3.55;;;1.25;;
46158;SDS011;31888;44.512;26.104;2022-07-18T02:23:32;4.03;;;1.38;;
46158;SDS011;31888;44.512;26.104;2022-07-18T02:25:38;1.38;;;1.08;;
46158;SDS011;31888;44.512;26.104;2022-07-18T02:27:42;3.53;;;1.00;;
46158;SDS011;31888;44.512;26.104;2022-07-18T02:29:47;6.45;;;1.00;;
46158;SDS011;31888;44.512;26.104;2022-07-18T02:31:51;4.70;;;1.35;;
46158;SDS011;31888;44.512;26.104;2022-07-18T02:33:56;3.17;;;1.10;;
46158;SDS011;31888;44.512;26.104;2022-07-18T02:36:00;3.97;;;1.00;;
46158;SDS011;31888;44.512;26.104;2022-07-18T02:38:05;3.38;;;1.40;;
46158;SDS011;31888;44.512;26.104;2022-07-18T02:40:10;5.97;;;1.30;;
46158;SDS011;31888;44.512;26.104;2022-07-18T02:42:16;2.05;;;1.20;;
46158;SDS011;31888;44.512;26.104;2022-07-18T02:44:21;3.88;;;1.40;;
46158;SDS011;31888;44.512;26.104;2022-07-18T02:46:25;4.15;;;1.30;;
46158;SDS011;31888;44.512;26.104;2022-07-18T02:48:31;4.78;;;1.10;;
46158;SDS011;31888;44.512;26.104;2022-07-18T02:50:35;4.60;;;1.10;;
46158;SDS011;31888;44.512;26.104;2022-07-18T02:52:40;2.97;;;1.38;;
46158;SDS011;31888;44.512;26.104;2022-07-18T02:54:44;1.38;;;1.20;;
46158;SDS011;31888;44.512;26.104;2022-07-18T02:56:49;2.70;;;1.50;;
46158;SDS011;31888;44.512;26.104;2022-07-18T02:58:55;3.92;;;1.40;;
46158;SDS011;31888;44.512;26.104;2022-07-18T03:00:59;5.05;;;2.05;;
46158;SDS011;31888;44.512;26.104;2022-07-18T03:03:03;1.92;;;1.10;;
46158;SDS011;31888;44.512;26.104;2022-07-18T03:05:08;2.92;;;1.08;;
46158;SDS011;31888;44.512;26.104;2022-07-18T03:07:13;5.97;;;1.30;;
46158;SDS011;31888;44.512;26.104;2022-07-18T03:09:17;3.80;;;1.35;;
46158;SDS011;31888;44.512;26.104;2022-07-18T03:11:22;4.88;;;1.33;;
46158;SDS011;31888;44.512;26.104;2022-07-18T03:13:26;2.78;;;1.17;;
46158;SDS011;31888;44.512;26.104;2022-07-18T03:15:32;6.68;;;1.20;;
46158;SDS011;31888;44.512;26.104;2022-07-18T03:17:37;2.80;;;0.90;;
46158;SDS011;31888;44.512;26.104;2022-07-18T03:19:41;3.17;;;0.90;;
46158;SDS011;31888;44.512;26.104;2022-07-18T03:21:46;3.17;;;1.10;;
46158;SDS011;31888;44.512;26.104;2022-07-18T03:23:50;3.10;;;1.35;;
46158;SDS011;31888;44.512;26.104;2022-07-18T03:25:55;1.83;;;1.08;;
46158;SDS011;31888;44.512;26.104;2022-07-18T03:27:59;2.17;;;1.00;;
46158;SDS011;31888;44.512;26.104;2022-07-18T03:30:04;2.85;;;1.15;;
46158;SDS011;31888;44.512;26.104;2022-07-18T03:32:10;1.27;;;1.00;;
46158;SDS011;31888;44.512;26.104;2022-07-18T03:34:15;3.80;;;1.05;;
46158;SDS011;31888;44.512;26.104;2022-07-18T03:36:19;3.03;;;1.10;;
46158;SDS011;31888;44.512;26.104;2022-07-18T03:38:24;9.10;;;1.20;;
46158;SDS011;31888;44.512;26.104;2022-07-18T03:40:30;3.33;;;2.00;;
46158;SDS011;31888;44.512;26.104;2022-07-18T03:42:36;2.53;;;1.10;;
46158;SDS011;31888;44.512;26.104;2022-07-18T03:44:40;1.73;;;1.08;;
46158;SDS011;31888;44.512;26.104;2022-07-18T03:46:44;3.08;;;1.17;;
46158;SDS011;31888;44.512;26.104;2022-07-18T03:48:50;4.45;;;1.25;;
46158;SDS011;31888;44.512;26.104;2022-07-18T03:50:54;2.03;;;1.10;;
46158;SDS011;31888;44.512;26.104;2022-07-18T03:52:59;3.63;;;1.40;;
46158;SDS011;31888;44.512;26.104;2022-07-18T03:55:04;1.48;;;1.00;;
46158;SDS011;31888;44.512;26.104;2022-07-18T03:57:08;4.07;;;1.20;;
46158;SDS011;31888;44.512;26.104;2022-07-18T03:59:13;5.32;;;1.33;;
46158;SDS011;31888;44.512;26.104;2022-07-18T04:01:17;3.38;;;1.20;;
46158;SDS011;31888;44.512;26.104;2022-07-18T04:03:22;1.92;;;1.10;;
46158;SDS011;31888;44.512;26.104;2022-07-18T04:05:28;1.67;;;1.15;;
46158;SDS011;31888;44.512;26.104;2022-07-18T04:07:32;3.95;;;1.00;;
46158;SDS011;31888;44.512;26.104;2022-07-18T04:09:37;3.17;;;1.00;;
46158;SDS011;31888;44.512;26.104;2022-07-18T04:11:41;8.93;;;1.35;;
46158;SDS011;31888;44.512;26.104;2022-07-18T04:13:46;4.25;;;1.10;;
46158;SDS011;31888;44.512;26.104;2022-07-18T04:15:50;1.95;;;1.10;;
46158;SDS011;31888;44.512;26.104;2022-07-18T04:17:55;2.67;;;1.20;;
46158;SDS011;31888;44.512;26.104;2022-07-18T04:19:59;3.78;;;1.10;;
46158;SDS011;31888;44.512;26.104;2022-07-18T04:22:06;3.85;;;1.30;;
46158;SDS011;31888;44.512;26.104;2022-07-18T04:24:10;1.80;;;1.00;;
46158;SDS011;31888;44.512;26.104;2022-07-18T04:26:15;1.60;;;1.10;;
46158;SDS011;31888;44.512;26.104;2022-07-18T04:28:20;3.63;;;1.30;;
46158;SDS011;31888;44.512;26.104;2022-07-18T04:30:25;4.30;;;1.10;;
46158;SDS011;31888;44.512;26.104;2022-07-18T04:32:30;3.45;;;1.23;;
46158;SDS011;31888;44.512;26.104;2022-07-18T04:34:34;1.70;;;1.08;;
46158;SDS011;31888;44.512;26.104;2022-07-18T04:36:39;3.50;;;1.17;;
46158;SDS011;31888;44.512;26.104;2022-07-18T04:38:45;5.20;;;1.27;;
46158;SDS011;31888;44.512;26.104;2022-07-18T04:40:49;2.92;;;1.02;;
46158;SDS011;31888;44.512;26.104;2022-07-18T04:42:54;4.30;;;1.30;;
46158;SDS011;31888;44.512;26.104;2022-07-18T04:44:58;4.75;;;1.35;;
46158;SDS011;31888;44.512;26.104;2022-07-18T04:47:04;5.75;;;1.27;;
46158;SDS011;31888;44.512;26.104;2022-07-18T04:49:08;2.95;;;1.90;;
46158;SDS011;31888;44.512;26.104;2022-07-18T04:51:15;3.28;;;1.52;;
46158;SDS011;31888;44.512;26.104;2022-07-18T04:53:19;2.50;;;1.13;;
46158;SDS011;31888;44.512;26.104;2022-07-18T04:55:25;3.88;;;1.48;;
46158;SDS011;31888;44.512;26.104;2022-07-18T04:57:31;4.50;;;1.67;;
46158;SDS011;31888;44.512;26.104;2022-07-18T04:59:36;1.45;;;1.10;;
46158;SDS011;31888;44.512;26.104;2022-07-18T05:01:40;4.85;;;1.00;;
46158;SDS011;31888;44.512;26.104;2022-07-18T05:03:46;5.35;;;1.30;;
46158;SDS011;31888;44.512;26.104;2022-07-18T05:05:50;2.30;;;1.10;;
46158;SDS011;31888;44.512;26.104;2022-07-18T05:08:00;4.95;;;1.45;;
46158;SDS011;31888;44.512;26.104;2022-07-18T05:10:17;2.90;;;1.35;;
46158;SDS011;31888;44.512;26.104;2022-07-18T05:16:25;3.33;;;1.48;;
46158;SDS011;31888;44.512;26.104;2022-07-18T05:18:48;2.28;;;1.35;;
46158;SDS011;31888;44.512;26.104;2022-07-18T05:20:52;4.65;;;1.30;;
46158;SDS011;31888;44.512;26.104;2022-07-18T05:22:56;6.07;;;1.27;;
46158;SDS011;31888;44.512;26.104;2022-07-18T05:25:02;2.83;;;1.25;;
46158;SDS011;31888;44.512;26.104;2022-07-18T05:27:08;2.15;;;1.05;;
46158;SDS011;31888;44.512;26.104;2022-07-18T05:29:12;5.57;;;1.33;;
46158;SDS011;31888;44.512;26.104;2022-07-18T05:31:18;3.05;;;1.35;;
46158;SDS011;31888;44.512;26.104;2022-07-18T05:33:22;2.53;;;1.20;;
46158;SDS011;31888;44.512;26.104;2022-07-18T05:35:27;4.45;;;1.40;;
46158;SDS011;31888;44.512;26.104;2022-07-18T05:37:34;3.38;;;1.20;;
46158;SDS011;31888;44.512;26.104;2022-07-18T05:39:39;4.80;;;1.77;;
46158;SDS011;31888;44.512;26.104;2022-07-18T05:41:44;2.30;;;1.20;;
46158;SDS011;31888;44.512;26.104;2022-07-18T05:43:49;3.28;;;1.23;;
46158;SDS011;31888;44.512;26.104;2022-07-18T05:45:53;2.42;;;1.40;;
46158;SDS011;31888;44.512;26.104;2022-07-18T05:47:59;3.67;;;1.20;;
46158;SDS011;31888;44.512;26.104;2022-07-18T05:50:04;3.65;;;1.58;;
46158;SDS011;31888;44.512;26.104;2022-07-18T05:52:09;10.20;;;2.03;;
46158;SDS011;31888;44.512;26.104;2022-07-18T05:54:13;3.13;;;1.40;;
46158;SDS011;31888;44.512;26.104;2022-07-18T05:56:21;9.02;;;1.75;;
46158;SDS011;31888;44.512;26.104;2022-07-18T05:58:25;3.30;;;1.45;;
46158;SDS011;31888;44.512;26.104;2022-07-18T06:00:30;6.65;;;1.63;;
46158;SDS011;31888;44.512;26.104;2022-07-18T06:02:35;7.05;;;1.75;;
46158;SDS011;31888;44.512;26.104;2022-07-18T06:04:41;4.47;;;1.95;;
46158;SDS011;31888;44.512;26.104;2022-07-18T06:07:05;7.95;;;1.83;;
46158;SDS011;31888;44.512;26.104;2022-07-18T06:09:10;3.08;;;1.33;;
46158;SDS011;31888;44.512;26.104;2022-07-18T06:11:15;3.13;;;1.40;;
46158;SDS011;31888;44.512;26.104;2022-07-18T06:13:19;6.85;;;1.33;;
46158;SDS011;31888;44.512;26.104;2022-07-18T06:15:24;7.63;;;1.48;;
46158;SDS011;31888;44.512;26.104;2022-07-18T06:17:29;3.80;;;1.30;;
46158;SDS011;31888;44.512;26.104;2022-07-18T06:19:33;4.40;;;1.40;;
46158;SDS011;31888;44.512;26.104;2022-07-18T06:21:39;4.30;;;1.35;;
46158;SDS011;31888;44.512;26.104;2022-07-18T06:23:43;6.70;;;1.30;;
46158;SDS011;31888;44.512;26.104;2022-07-18T06:25:48;4.25;;;1.27;;
46158;SDS011;31888;44.512;26.104;2022-07-18T06:27:53;4.57;;;1.13;;
46158;SDS011;31888;44.512;26.104;2022-07-18T06:29:57;3.70;;;1.58;;
46158;SDS011;31888;44.512;26.104;2022-07-18T06:32:01;2.67;;;1.02;;
46158;SDS011;31888;44.512;26.104;2022-07-18T06:34:06;3.53;;;1.10;;
46158;SDS011;31888;44.512;26.104;2022-07-18T06:36:10;9.65;;;1.88;;
46158;SDS011;31888;44.512;26.104;2022-07-18T06:38:17;2.25;;;1.40;;
46158;SDS011;31888;44.512;26.104;2022-07-18T06:40:22;4.45;;;1.25;;
46158;SDS011;31888;44.512;26.104;2022-07-18T06:42:27;1.67;;;1.17;;
46158;SDS011;31888;44.512;26.104;2022-07-18T06:44:33;2.88;;;1.63;;
46158;SDS011;31888;44.512;26.104;2022-07-18T06:46:37;2.28;;;1.33;;
46158;SDS011;31888;44.512;26.104;2022-07-18T06:48:42;4.03;;;1.50;;
46158;SDS011;31888;44.512;26.104;2022-07-18T06:50:46;2.15;;;1.25;;
46158;SDS011;31888;44.512;26.104;2022-07-18T06:52:51;3.88;;;1.42;;
46158;SDS011;31888;44.512;26.104;2022-07-18T06:54:57;4.88;;;1.80;;
46158;SDS011;31888;44.512;26.104;2022-07-18T06:57:04;2.38;;;1.25;;
46158;SDS011;31888;44.512;26.104;2022-07-18T06:59:11;1.90;;;1.30;;
46158;SDS011;31888;44.512;26.104;2022-07-18T07:01:16;3.40;;;1.50;;
46158;SDS011;31888;44.512;26.104;2022-07-18T07:03:21;2.75;;;1.60;;
46158;SDS011;31888;44.512;26.104;2022-07-18T07:05:26;2.63;;;1.20;;
46158;SDS011;31888;44.512;26.104;2022-07-18T07:07:32;4.43;;;1.75;;
46158;SDS011;31888;44.512;26.104;2022-07-18T07:09:36;21.20;;;2.72;;
46158;SDS011;31888;44.512;26.104;2022-07-18T07:11:42;5.82;;;1.25;;
46158;SDS011;31888;44.512;26.104;2022-07-18T07:13:48;3.75;;;1.45;;
46158;SDS011;31888;44.512;26.104;2022-07-18T07:15:53;2.95;;;1.40;;
46158;SDS011;31888;44.512;26.104;2022-07-18T07:17:57;6.55;;;1.33;;
46158;SDS011;31888;44.512;26.104;2022-07-18T07:20:02;3.35;;;1.40;;
46158;SDS011;31888;44.512;26.104;2022-07-18T07:22:08;2.25;;;1.30;;
46158;SDS011;31888;44.512;26.104;2022-07-18T07:24:12;9.88;;;1.90;;
46158;SDS011;31888;44.512;26.104;2022-07-18T07:26:17;3.42;;;1.30;;
46158;SDS011;31888;44.512;26.104;2022-07-18T07:28:22;7.53;;;1.60;;
46158;SDS011;31888;44.512;26.104;2022-07-18T07:30:27;8.85;;;1.70;;
46158;SDS011;31888;44.512;26.104;2022-07-18T07:32:33;7.38;;;1.70;;
46158;SDS011;31888;44.512;26.104;2022-07-18T07:34:38;8.55;;;1.73;;
46158;SDS011;31888;44.512;26.104;2022-07-18T07:36:43;7.97;;;1.80;;
46158;SDS011;31888;44.512;26.104;2022-07-18T07:38:48;4.70;;;1.75;;
46158;SDS011;31888;44.512;26.104;2022-07-18T07:40:52;4.72;;;2.08;;
46158;SDS011;31888;44.512;26.104;2022-07-18T07:43:07;2.00;;;1.30;;
46158;SDS011;31888;44.512;26.104;2022-07-18T07:45:14;9.18;;;2.28;;
46158;SDS011;31888;44.512;26.104;2022-07-18T07:47:23;6.45;;;1.70;;
46158;SDS011;31888;44.512;26.104;2022-07-18T07:49:27;3.00;;;1.63;;
46158;SDS011;31888;44.512;26.104;2022-07-18T07:51:36;5.07;;;2.05;;
46158;SDS011;31888;44.512;26.104;2022-07-18T07:53:42;5.93;;;1.90;;
46158;SDS011;31888;44.512;26.104;2022-07-18T07:55:49;5.28;;;2.35;;
46158;SDS011;31888;44.512;26.104;2022-07-18T07:57:54;3.03;;;1.98;;
46158;SDS011;31888;44.512;26.104;2022-07-18T08:00:03;7.57;;;2.22;;
46158;SDS011;31888;44.512;26.104;2022-07-18T08:02:17;5.45;;;2.15;;
46158;SDS011;31888;44.512;26.104;2022-07-18T08:04:22;5.70;;;2.85;;
46158;SDS011;31888;44.512;26.104;2022-07-18T08:06:27;6.75;;;2.53;;
46158;SDS011;31888;44.512;26.104;2022-07-18T08:08:31;6.07;;;2.28;;
46158;SDS011;31888;44.512;26.104;2022-07-18T08:10:36;5.45;;;2.10;;
46158;SDS011;31888;44.512;26.104;2022-07-18T08:12:45;10.20;;;2.30;;
46158;SDS011;31888;44.512;26.104;2022-07-18T08:14:50;16.30;;;2.05;;
46158;SDS011;31888;44.512;26.104;2022-07-18T08:16:54;7.53;;;2.00;;
46158;SDS011;31888;44.512;26.104;2022-07-18T08:19:01;6.53;;;1.48;;
46158;SDS011;31888;44.512;26.104;2022-07-18T08:21:05;5.30;;;1.92;;
46158;SDS011;31888;44.512;26.104;2022-07-18T08:23:10;9.10;;;2.70;;
46158;SDS011;31888;44.512;26.104;2022-07-18T08:25:15;7.18;;;2.40;;
46158;SDS011;31888;44.512;26.104;2022-07-18T08:27:19;8.75;;;2.08;;
46158;SDS011;31888;44.512;26.104;2022-07-18T08:29:24;8.18;;;1.90;;
46158;SDS011;31888;44.512;26.104;2022-07-18T08:31:48;4.07;;;1.38;;
46158;SDS011;31888;44.512;26.104;2022-07-18T08:33:53;5.43;;;1.60;;
46158;SDS011;31888;44.512;26.104;2022-07-18T08:35:59;4.03;;;1.38;;
46158;SDS011;31888;44.512;26.104;2022-07-18T08:38:04;4.53;;;1.90;;
46158;SDS011;31888;44.512;26.104;2022-07-18T08:40:09;13.52;;;2.35;;
46158;SDS011;31888;44.512;26.104;2022-07-18T08:42:14;2.80;;;1.73;;
46158;SDS011;31888;44.512;26.104;2022-07-18T08:44:22;4.25;;;1.88;;
46158;SDS011;31888;44.512;26.104;2022-07-18T08:46:26;2.90;;;1.70;;
46158;SDS011;31888;44.512;26.104;2022-07-18T08:48:31;3.40;;;1.60;;
46158;SDS011;31888;44.512;26.104;2022-07-18T08:50:36;6.88;;;1.50;;
46158;SDS011;31888;44.512;26.104;2022-07-18T08:52:48;5.93;;;1.95;;
46158;SDS011;31888;44.512;26.104;2022-07-18T08:54:56;4.50;;;1.55;;
46158;SDS011;31888;44.512;26.104;2022-07-18T08:57:01;4.10;;;1.23;;
46158;SDS011;31888;44.512;26.104;2022-07-18T08:59:07;4.65;;;1.40;;
46158;SDS011;31888;44.512;26.104;2022-07-18T09:01:11;3.25;;;1.60;;
46158;SDS011;31888;44.512;26.104;2022-07-18T09:03:16;4.10;;;1.45;;
46158;SDS011;31888;44.512;26.104;2022-07-18T09:05:21;8.07;;;1.67;;
46158;SDS011;31888;44.512;26.104;2022-07-18T09:07:35;7.28;;;1.45;;
46158;SDS011;31888;44.512;26.104;2022-07-18T09:09:41;5.63;;;1.98;;
46158;SDS011;31888;44.512;26.104;2022-07-18T09:12:00;4.13;;;1.40;;
46158;SDS011;31888;44.512;26.104;2022-07-18T09:14:09;2.13;;;1.30;;
46158;SDS011;31888;44.512;26.104;2022-07-18T09:16:33;4.43;;;1.50;;
46158;SDS011;31888;44.512;26.104;2022-07-18T09:18:38;4.78;;;1.45;;
46158;SDS011;31888;44.512;26.104;2022-07-18T09:20:56;4.85;;;1.52;;
46158;SDS011;31888;44.512;26.104;2022-07-18T09:23:09;5.50;;;1.77;;
46158;SDS011;31888;44.512;26.104;2022-07-18T09:25:18;5.28;;;2.25;;
46158;SDS011;31888;44.512;26.104;2022-07-18T09:27:32;2.17;;;1.30;;
46158;SDS011;31888;44.512;26.104;2022-07-18T09:29:40;4.80;;;1.63;;
46158;SDS011;31888;44.512;26.104;2022-07-18T09:31:47;6.05;;;1.92;;
46158;SDS011;31888;44.512;26.104;2022-07-18T09:33:53;4.90;;;1.30;;
46158;SDS011;31888;44.512;26.104;2022-07-18T09:36:01;3.78;;;1.80;;
46158;SDS011;31888;44.512;26.104;2022-07-18T09:38:06;3.30;;;1.50;;
46158;SDS011;31888;44.512;26.104;2022-07-18T09:40:15;5.90;;;1.65;;
46158;SDS011;31888;44.512;26.104;2022-07-18T09:42:22;3.75;;;1.52;;
46158;SDS011;31888;44.512;26.104;2022-07-18T09:44:26;5.70;;;1.63;;
46158;SDS011;31888;44.512;26.104;2022-07-18T09:46:34;3.08;;;1.60;;
46158;SDS011;31888;44.512;26.104;2022-07-18T09:49:07;3.13;;;1.63;;
46158;SDS011;31888;44.512;26.104;2022-07-18T09:51:14;2.15;;;1.50;;
46158;SDS011;31888;44.512;26.104;2022-07-18T09:53:20;4.95;;;1.58;;
46158;SDS011;31888;44.512;26.104;2022-07-18T09:55:41;6.95;;;1.65;;
46158;SDS011;31888;44.512;26.104;2022-07-18T09:57:46;5.63;;;1.85;;
46158;SDS011;31888;44.512;26.104;2022-07-18T10:00:02;4.95;;;1.60;;
46158;SDS011;31888;44.512;26.104;2022-07-18T10:02:13;4.05;;;1.98;;
46158;SDS011;31888;44.512;26.104;2022-07-18T10:04:20;7.35;;;1.85;;
46158;SDS011;31888;44.512;26.104;2022-07-18T10:06:24;4.57;;;1.80;;
46158;SDS011;31888;44.512;26.104;2022-07-18T10:08:30;6.60;;;1.70;;
46158;SDS011;31888;44.512;26.104;2022-07-18T10:10:37;4.18;;;1.92;;
46158;SDS011;31888;44.512;26.104;2022-07-18T10:12:46;3.72;;;1.40;;
46158;SDS011;31888;44.512;26.104;2022-07-18T10:14:53;2.72;;;1.50;;
46158;SDS011;31888;44.512;26.104;2022-07-18T10:16:59;2.20;;;1.25;;
46158;SDS011;31888;44.512;26.104;2022-07-18T10:19:07;4.35;;;1.70;;
46158;SDS011;31888;44.512;26.104;2022-07-18T10:21:14;2.70;;;1.63;;
46158;SDS011;31888;44.512;26.104;2022-07-18T10:23:23;3.00;;;1.42;;
46158;SDS011;31888;44.512;26.104;2022-07-18T10:25:30;4.25;;;1.88;;
46158;SDS011;31888;44.512;26.104;2022-07-18T10:27:49;5.90;;;1.70;;
46158;SDS011;31888;44.512;26.104;2022-07-18T10:30:07;4.35;;;2.03;;
46158;SDS011;31888;44.512;26.104;2022-07-18T10:32:14;5.40;;;1.63;;
46158;SDS011;31888;44.512;26.104;2022-07-18T10:34:36;2.63;;;1.70;;
46158;SDS011;31888;44.512;26.104;2022-07-18T10:39:11;3.22;;;1.38;;
46158;SDS011;31888;44.512;26.104;2022-07-18T10:41:22;4.15;;;2.00;;
46158;SDS011;31888;44.512;26.104;2022-07-18T10:43:41;3.05;;;1.70;;
46158;SDS011;31888;44.512;26.104;2022-07-18T10:45:46;2.85;;;1.48;;
46158;SDS011;31888;44.512;26.104;2022-07-18T10:47:52;3.67;;;1.50;;
46158;SDS011;31888;44.512;26.104;2022-07-18T10:50:03;5.53;;;1.70;;
46158;SDS011;31888;44.512;26.104;2022-07-18T10:52:24;2.50;;;1.73;;
46158;SDS011;31888;44.512;26.104;2022-07-18T10:55:26;2.67;;;1.60;;
46158;SDS011;31888;44.512;26.104;2022-07-18T10:57:34;6.65;;;1.80;;
46158;SDS011;31888;44.512;26.104;2022-07-18T11:00:00;2.95;;;1.50;;
46158;SDS011;31888;44.512;26.104;2022-07-18T11:02:10;4.47;;;2.03;;
46158;SDS011;31888;44.512;26.104;2022-07-18T11:04:21;3.85;;;1.67;;
46158;SDS011;31888;44.512;26.104;2022-07-18T11:17:13;8.50;;;2.40;;
46158;SDS011;31888;44.512;26.104;2022-07-18T11:19:38;3.47;;;1.83;;
46158;SDS011;31888;44.512;26.104;2022-07-18T11:21:44;8.98;;;2.15;;
46158;SDS011;31888;44.512;26.104;2022-07-18T11:23:59;4.10;;;1.90;;
46158;SDS011;31888;44.512;26.104;2022-07-18T11:26:13;5.18;;;1.90;;
46158;SDS011;31888;44.512;26.104;2022-07-18T11:28:25;3.97;;;1.75;;
46158;SDS011;31888;44.512;26.104;2022-07-18T11:30:32;5.28;;;2.00;;
46158;SDS011;31888;44.512;26.104;2022-07-18T11:32:37;4.72;;;2.47;;
46158;SDS011;31888;44.512;26.104;2022-07-18T11:37:11;5.78;;;2.05;;
46158;SDS011;31888;44.512;26.104;2022-07-18T11:39:27;7.63;;;2.67;;
46158;SDS011;31888;44.512;26.104;2022-07-18T11:41:36;2.15;;;1.70;;
46158;SDS011;31888;44.512;26.104;2022-07-18T11:43:44;5.38;;;1.83;;
46158;SDS011;31888;44.512;26.104;2022-07-18T11:48:37;4.82;;;2.05;;
46158;SDS011;31888;44.512;26.104;2022-07-18T11:50:45;3.05;;;1.77;;
46158;SDS011;31888;44.512;26.104;2022-07-18T11:52:54;6.18;;;2.42;;
46158;SDS011;31888;44.512;26.104;2022-07-18T11:55:00;3.30;;;1.77;;
46158;SDS011;31888;44.512;26.104;2022-07-18T11:57:06;5.13;;;1.83;;
46158;SDS011;31888;44.512;26.104;2022-07-18T11:59:11;5.97;;;2.33;;
46158;SDS011;31888;44.512;26.104;2022-07-18T12:01:17;3.08;;;1.83;;
46158;SDS011;31888;44.512;26.104;2022-07-18T12:03:23;11.55;;;2.17;;
46158;SDS011;31888;44.512;26.104;2022-07-18T12:05:30;6.85;;;2.13;;
46158;SDS011;31888;44.512;26.104;2022-07-18T12:07:35;5.28;;;1.80;;
46158;SDS011;31888;44.512;26.104;2022-07-18T12:09:40;5.18;;;1.90;;
46158;SDS011;31888;44.512;26.104;2022-07-18T12:11:45;9.70;;;1.92;;
46158;SDS011;31888;44.512;26.104;2022-07-18T12:14:13;6.70;;;2.00;;
46158;SDS011;31888;44.512;26.104;2022-07-18T12:16:29;4.90;;;2.13;;
46158;SDS011;31888;44.512;26.104;2022-07-18T12:18:48;8.10;;;2.30;;
46158;SDS011;31888;44.512;26.104;2022-07-18T12:21:05;7.97;;;2.50;;
46158;SDS011;31888;44.512;26.104;2022-07-18T12:23:15;8.60;;;2.13;;
46158;SDS011;31888;44.512;26.104;2022-07-18T12:25:33;6.25;;;2.92;;
46158;SDS011;31888;44.512;26.104;2022-07-18T12:27:38;4.38;;;2.20;;
46158;SDS011;31888;44.512;26.104;2022-07-18T12:29:57;6.50;;;1.92;;
46158;SDS011;31888;44.512;26.104;2022-07-18T12:32:16;3.30;;;1.65;;
46158;SDS011;31888;44.512;26.104;2022-07-18T12:34:22;2.90;;;1.85;;
46158;SDS011;31888;44.512;26.104;2022-07-18T12:36:51;3.28;;;1.73;;
46158;SDS011;31888;44.512;26.104;2022-07-18T12:39:02;4.40;;;2.00;;
46158;SDS011;31888;44.512;26.104;2022-07-18T12:41:06;8.10;;;2.38;;
46158;SDS011;31888;44.512;26.104;2022-07-18T12:43:23;6.13;;;1.65;;
46158;SDS011;31888;44.512;26.104;2022-07-18T12:45:33;4.40;;;1.73;;
46158;SDS011;31888;44.512;26.104;2022-07-18T12:47:41;3.55;;;1.73;;
46158;SDS011;31888;44.512;26.104;2022-07-18T12:49:47;5.93;;;2.13;;
46158;SDS011;31888;44.512;26.104;2022-07-18T12:51:56;4.13;;;1.90;;
46158;SDS011;31888;44.512;26.104;2022-07-18T12:54:02;3.08;;;1.45;;
46158;SDS011;31888;44.512;26.104;2022-07-18T12:56:14;4.38;;;1.73;;